sensor_id;sensor_type;location;lat;lon;timestamp;pressure;altitude;pressure_sealevel;temperature;humidity
62038;BME280;47991;42.974;12.082;2023-03-29T00:01:19;98732.59;;;2.14;53.87
62038;BME280;47991;42.974;12.082;2023-03-29T00:04:07;98730.36;;;2.08;54.19
62038;BME280;47991;42.974;12.082;2023-03-29T00:07:23;98722.66;;;2.06;54.90
62038;BME280;47991;42.974;12.082;2023-03-29T00:10:25;98724.95;;;2.07;54.81
62038;BME280;47991;42.974;12.082;2023-03-29T00:12:53;98722.29;;;2.05;54.74
62038;BME280;47991;42.974;12.082;2023-03-29T00:15:40;98715.63;;;2.03;54.85
62038;BME280;47991;42.974;12.082;2023-03-29T00:18:15;98713.58;;;1.97;54.77
62038;BME280;47991;42.974;12.082;2023-03-29T00:21:05;98718.70;;;2.00;54.27
62038;BME280;47991;42.974;12.082;2023-03-29T00:23:52;98719.52;;;2.07;54.27
62038;BME280;47991;42.974;12.082;2023-03-29T00:26:24;98721.77;;;2.05;54.11
62038;BME280;47991;42.974;12.082;2023-03-29T00:28:54;98719.80;;;2.03;54.59
62038;BME280;47991;42.974;12.082;2023-03-29T00:31:53;98721.29;;;2.08;55.10
62038;BME280;47991;42.974;12.082;2023-03-29T00:34:42;98731.94;;;2.08;55.35
62038;BME280;47991;42.974;12.082;2023-03-29T00:37:36;98738.69;;;2.05;54.98
62038;BME280;47991;42.974;12.082;2023-03-29T00:40:32;98738.02;;;1.98;55.34
62038;BME280;47991;42.974;12.082;2023-03-29T00:48:02;98740.32;;;1.92;56.75
62038;BME280;47991;42.974;12.082;2023-03-29T00:51:05;98735.92;;;1.91;57.00
62038;BME280;47991;42.974;12.082;2023-03-29T00:54:29;98723.92;;;1.92;57.04
62038;BME280;47991;42.974;12.082;2023-03-29T00:57:47;98718.27;;;1.96;58.00
62038;BME280;47991;42.974;12.082;2023-03-29T01:04:55;98716.86;;;1.96;56.31
62038;BME280;47991;42.974;12.082;2023-03-29T01:08:06;98713.46;;;1.99;55.92
62038;BME280;47991;42.974;12.082;2023-03-29T01:15:21;98711.07;;;2.11;55.81
62038;BME280;47991;42.974;12.082;2023-03-29T01:18:55;98707.02;;;1.92;57.74
62038;BME280;47991;42.974;12.082;2023-03-29T01:29:35;98715.27;;;1.78;57.44
62038;BME280;47991;42.974;12.082;2023-03-29T01:38:29;98714.73;;;1.85;58.64
62038;BME280;47991;42.974;12.082;2023-03-29T01:41:45;98706.89;;;1.77;58.44
62038;BME280;47991;42.974;12.082;2023-03-29T01:48:27;98702.80;;;1.82;58.69
62038;BME280;47991;42.974;12.082;2023-03-29T01:51:24;98700.83;;;1.88;58.18
62038;BME280;47991;42.974;12.082;2023-03-29T01:54:15;98702.67;;;1.93;57.80
62038;BME280;47991;42.974;12.082;2023-03-29T01:57:52;98704.51;;;1.97;58.13
62038;BME280;47991;42.974;12.082;2023-03-29T02:01:00;98698.86;;;1.94;58.14
62038;BME280;47991;42.974;12.082;2023-03-29T02:04:07;98702.45;;;1.90;58.15
62038;BME280;47991;42.974;12.082;2023-03-29T02:07:25;98698.15;;;1.94;57.93
62038;BME280;47991;42.974;12.082;2023-03-29T02:10:57;98697.56;;;1.99;60.08
62038;BME280;47991;42.974;12.082;2023-03-29T02:13:46;98696.34;;;1.99;60.85
62038;BME280;47991;42.974;12.082;2023-03-29T02:16:48;98700.12;;;1.87;59.55
62038;BME280;47991;42.974;12.082;2023-03-29T02:19:36;98700.77;;;1.93;59.31
62038;BME280;47991;42.974;12.082;2023-03-29T02:22:08;98700.82;;;1.96;58.80
62038;BME280;47991;42.974;12.082;2023-03-29T02:25:06;98705.81;;;2.01;58.65
62038;BME280;47991;42.974;12.082;2023-03-29T02:27:42;98708.91;;;2.08;58.77
62038;BME280;47991;42.974;12.082;2023-03-29T02:30:34;98717.80;;;2.15;58.56
62038;BME280;47991;42.974;12.082;2023-03-29T02:36:48;98721.38;;;2.20;59.41
62038;BME280;47991;42.974;12.082;2023-03-29T02:43:42;98720.36;;;2.13;59.30
62038;BME280;47991;42.974;12.082;2023-03-29T02:50:54;98714.81;;;2.06;58.49
62038;BME280;47991;42.974;12.082;2023-03-29T02:53:38;98719.81;;;2.12;58.79
62038;BME280;47991;42.974;12.082;2023-03-29T02:56:29;98717.29;;;2.16;59.12
62038;BME280;47991;42.974;12.082;2023-03-29T02:59:40;98714.69;;;2.17;59.40
62038;BME280;47991;42.974;12.082;2023-03-29T03:02:14;98712.91;;;2.15;59.46
62038;BME280;47991;42.974;12.082;2023-03-29T03:05:01;98711.52;;;1.99;61.06
62038;BME280;47991;42.974;12.082;2023-03-29T03:09:07;98718.30;;;1.91;60.42
62038;BME280;47991;42.974;12.082;2023-03-29T03:15:55;98705.88;;;1.96;60.08
62038;BME280;47991;42.974;12.082;2023-03-29T03:18:39;98705.41;;;1.90;60.07
62038;BME280;47991;42.974;12.082;2023-03-29T03:21:09;98704.22;;;1.83;60.38
62038;BME280;47991;42.974;12.082;2023-03-29T03:35:52;98708.05;;;1.92;62.10
62038;BME280;47991;42.974;12.082;2023-03-29T03:38:55;98698.80;;;1.91;61.53
62038;BME280;47991;42.974;12.082;2023-03-29T03:41:47;98709.02;;;1.88;62.38
62038;BME280;47991;42.974;12.082;2023-03-29T03:44:37;98710.72;;;1.86;61.67
62038;BME280;47991;42.974;12.082;2023-03-29T03:51:35;98706.43;;;1.97;61.87
62038;BME280;47991;42.974;12.082;2023-03-29T03:54:14;98699.86;;;1.92;61.75
62038;BME280;47991;42.974;12.082;2023-03-29T03:57:25;98703.78;;;1.79;61.29
62038;BME280;47991;42.974;12.082;2023-03-29T03:59:58;98715.46;;;1.71;60.76
62038;BME280;47991;42.974;12.082;2023-03-29T04:02:55;98711.42;;;1.70;61.37
62038;BME280;47991;42.974;12.082;2023-03-29T04:05:36;98709.83;;;1.53;63.69
62038;BME280;47991;42.974;12.082;2023-03-29T04:08:13;98705.39;;;1.42;62.57
62038;BME280;47991;42.974;12.082;2023-03-29T04:11:04;98697.96;;;1.29;62.48
62038;BME280;47991;42.974;12.082;2023-03-29T04:17:52;98679.18;;;1.31;62.20
62038;BME280;47991;42.974;12.082;2023-03-29T04:20:57;98678.05;;;1.35;63.80
62038;BME280;47991;42.974;12.082;2023-03-29T04:23:29;98674.29;;;1.37;62.51
62038;BME280;47991;42.974;12.082;2023-03-29T04:26:32;98679.02;;;1.47;63.23
62038;BME280;47991;42.974;12.082;2023-03-29T04:30:08;98676.22;;;1.46;63.98
62038;BME280;47991;42.974;12.082;2023-03-29T04:33:08;98674.05;;;1.43;66.23
62038;BME280;47991;42.974;12.082;2023-03-29T04:39:21;98672.99;;;1.58;63.12
62038;BME280;47991;42.974;12.082;2023-03-29T04:42:15;98671.40;;;1.65;63.36
62038;BME280;47991;42.974;12.082;2023-03-29T04:44:55;98677.63;;;1.55;63.89
62038;BME280;47991;42.974;12.082;2023-03-29T04:47:59;98681.20;;;1.50;67.60
62038;BME280;47991;42.974;12.082;2023-03-29T04:50:38;98684.59;;;1.16;69.60
62038;BME280;47991;42.974;12.082;2023-03-29T04:53:24;98684.67;;;1.20;65.60
62038;BME280;47991;42.974;12.082;2023-03-29T04:55:58;98676.89;;;1.29;64.48
62038;BME280;47991;42.974;12.082;2023-03-29T04:59:29;98688.52;;;1.13;67.20
62038;BME280;47991;42.974;12.082;2023-03-29T05:02:19;98690.66;;;1.01;66.75
62038;BME280;47991;42.974;12.082;2023-03-29T05:05:46;98687.50;;;1.07;67.04
62038;BME280;47991;42.974;12.082;2023-03-29T05:08:35;98673.36;;;1.05;67.30
62038;BME280;47991;42.974;12.082;2023-03-29T05:15:01;98661.80;;;1.25;65.92
62038;BME280;47991;42.974;12.082;2023-03-29T05:18:13;98664.15;;;1.37;66.67
62038;BME280;47991;42.974;12.082;2023-03-29T05:21:57;98661.41;;;1.54;66.40
62038;BME280;47991;42.974;12.082;2023-03-29T05:24:59;98658.78;;;1.70;66.45
62038;BME280;47991;42.974;12.082;2023-03-29T05:28:20;98652.18;;;1.62;67.07
62038;BME280;47991;42.974;12.082;2023-03-29T05:31:08;98652.68;;;1.70;66.76
62038;BME280;47991;42.974;12.082;2023-03-29T05:34:08;98659.17;;;1.80;66.65
62038;BME280;47991;42.974;12.082;2023-03-29T05:37:01;98657.98;;;1.81;66.50
62038;BME280;47991;42.974;12.082;2023-03-29T05:50:12;98670.34;;;3.50;64.02
62038;BME280;47991;42.974;12.082;2023-03-29T05:53:20;98681.42;;;4.74;62.24
62038;BME280;47991;42.974;12.082;2023-03-29T05:55:57;98678.48;;;6.03;58.93
62038;BME280;47991;42.974;12.082;2023-03-29T06:05:41;98664.23;;;7.81;54.71
62038;BME280;47991;42.974;12.082;2023-03-29T06:08:14;98667.14;;;8.77;54.37
62038;BME280;47991;42.974;12.082;2023-03-29T06:11:10;98669.33;;;9.17;50.45
62038;BME280;47991;42.974;12.082;2023-03-29T06:18:10;98689.79;;;9.16;49.90
62038;BME280;47991;42.974;12.082;2023-03-29T06:21:31;98701.50;;;8.55;52.01
62038;BME280;47991;42.974;12.082;2023-03-29T06:24:32;98709.90;;;8.17;52.12
62038;BME280;47991;42.974;12.082;2023-03-29T06:27:24;98717.27;;;8.26;52.00
62038;BME280;47991;42.974;12.082;2023-03-29T06:30:28;98729.02;;;7.77;52.93
62038;BME280;47991;42.974;12.082;2023-03-29T06:33:46;98729.12;;;8.09;54.50
62038;BME280;47991;42.974;12.082;2023-03-29T06:37:01;98727.73;;;8.04;53.48
62038;BME280;47991;42.974;12.082;2023-03-29T06:39:55;98735.23;;;7.42;55.97
62038;BME280;47991;42.974;12.082;2023-03-29T06:43:14;98734.16;;;7.57;55.95
62038;BME280;47991;42.974;12.082;2023-03-29T06:46:08;98739.96;;;7.17;56.82
62038;BME280;47991;42.974;12.082;2023-03-29T06:49:10;98739.26;;;7.20;56.30
62038;BME280;47991;42.974;12.082;2023-03-29T06:52:55;98736.27;;;7.52;55.17
62038;BME280;47991;42.974;12.082;2023-03-29T06:55:18;98740.38;;;8.67;52.70
62038;BME280;47991;42.974;12.082;2023-03-29T06:57:50;98740.49;;;9.08;52.58
62038;BME280;47991;42.974;12.082;2023-03-29T07:00:37;98743.48;;;9.10;50.88
62038;BME280;47991;42.974;12.082;2023-03-29T07:03:21;98749.27;;;8.89;50.51
62038;BME280;47991;42.974;12.082;2023-03-29T07:08:54;98751.20;;;9.40;50.15
62038;BME280;47991;42.974;12.082;2023-03-29T07:12:24;98751.95;;;9.55;49.41
62038;BME280;47991;42.974;12.082;2023-03-29T07:15:31;98749.83;;;10.12;49.67
62038;BME280;47991;42.974;12.082;2023-03-29T07:18:45;98759.57;;;9.54;51.08
62038;BME280;47991;42.974;12.082;2023-03-29T07:21:50;98764.82;;;9.36;52.00
62038;BME280;47991;42.974;12.082;2023-03-29T07:24:31;98771.20;;;8.74;53.39
62038;BME280;47991;42.974;12.082;2023-03-29T07:30:29;98775.88;;;8.45;54.77
62038;BME280;47991;42.974;12.082;2023-03-29T07:33:52;98771.06;;;8.69;54.93
62038;BME280;47991;42.974;12.082;2023-03-29T07:37:32;98775.75;;;9.13;53.39
62038;BME280;47991;42.974;12.082;2023-03-29T07:41:33;98779.40;;;8.93;54.37
62038;BME280;47991;42.974;12.082;2023-03-29T07:44:24;98785.02;;;9.25;53.70
62038;BME280;47991;42.974;12.082;2023-03-29T07:47:11;98786.16;;;9.36;53.25
62038;BME280;47991;42.974;12.082;2023-03-29T07:49:54;98785.75;;;9.21;54.08
62038;BME280;47991;42.974;12.082;2023-03-29T07:55:25;98779.34;;;9.30;52.71
62038;BME280;47991;42.974;12.082;2023-03-29T07:58:03;98784.69;;;9.47;53.53
62038;BME280;47991;42.974;12.082;2023-03-29T08:00:47;98777.60;;;9.72;53.57
62038;BME280;47991;42.974;12.082;2023-03-29T08:04:03;98767.53;;;10.09;52.13
62038;BME280;47991;42.974;12.082;2023-03-29T08:07:19;98767.25;;;10.38;51.31
62038;BME280;47991;42.974;12.082;2023-03-29T08:10:01;98766.04;;;10.51;51.48
62038;BME280;47991;42.974;12.082;2023-03-29T08:16:46;98764.56;;;10.41;51.57
62038;BME280;47991;42.974;12.082;2023-03-29T08:19:35;98756.17;;;10.48;51.40
62038;BME280;47991;42.974;12.082;2023-03-29T08:22:16;98758.00;;;10.58;51.30
62038;BME280;47991;42.974;12.082;2023-03-29T08:28:57;98756.70;;;10.64;51.42
62038;BME280;47991;42.974;12.082;2023-03-29T08:36:05;98762.35;;;10.64;52.49
62038;BME280;47991;42.974;12.082;2023-03-29T08:38:43;98770.44;;;10.81;51.85
62038;BME280;47991;42.974;12.082;2023-03-29T08:42:03;98769.14;;;10.85;51.67
62038;BME280;47991;42.974;12.082;2023-03-29T08:45:27;98767.91;;;10.85;51.89
62038;BME280;47991;42.974;12.082;2023-03-29T08:48:25;98764.09;;;11.05;51.40
62038;BME280;47991;42.974;12.082;2023-03-29T08:51:51;98764.95;;;11.19;52.22
62038;BME280;47991;42.974;12.082;2023-03-29T08:55:51;98765.86;;;11.41;51.38
62038;BME280;47991;42.974;12.082;2023-03-29T08:58:58;98768.66;;;11.42;51.03
62038;BME280;47991;42.974;12.082;2023-03-29T09:01:38;98766.48;;;11.35;51.39
62038;BME280;47991;42.974;12.082;2023-03-29T09:04:55;98765.71;;;11.39;51.99
62038;BME280;47991;42.974;12.082;2023-03-29T09:07:44;98765.63;;;11.66;51.29
62038;BME280;47991;42.974;12.082;2023-03-29T09:10:47;98759.35;;;11.70;50.95
62038;BME280;47991;42.974;12.082;2023-03-29T09:14:03;98765.14;;;11.52;51.94
62038;BME280;47991;42.974;12.082;2023-03-29T09:17:14;98765.92;;;11.59;52.23
62038;BME280;47991;42.974;12.082;2023-03-29T09:21:02;98759.72;;;11.81;51.25
62038;BME280;47991;42.974;12.082;2023-03-29T09:27:33;98755.84;;;11.89;50.92
62038;BME280;47991;42.974;12.082;2023-03-29T09:34:18;98765.96;;;12.00;51.05
62038;BME280;47991;42.974;12.082;2023-03-29T09:37:10;98769.54;;;12.08;51.22
62038;BME280;47991;42.974;12.082;2023-03-29T09:40:14;98778.21;;;11.98;51.22
62038;BME280;47991;42.974;12.082;2023-03-29T09:43:17;98774.49;;;11.98;51.27
62038;BME280;47991;42.974;12.082;2023-03-29T09:45:54;98766.58;;;12.14;51.03
62038;BME280;47991;42.974;12.082;2023-03-29T09:48:26;98764.20;;;12.19;51.17
62038;BME280;47991;42.974;12.082;2023-03-29T09:51:27;98776.27;;;12.36;50.65
62038;BME280;47991;42.974;12.082;2023-03-29T09:54:29;98772.63;;;12.32;50.65
62038;BME280;47991;42.974;12.082;2023-03-29T09:57:18;98776.55;;;12.41;50.33
62038;BME280;47991;42.974;12.082;2023-03-29T10:00:14;98769.71;;;12.37;50.86
62038;BME280;47991;42.974;12.082;2023-03-29T10:02:56;98770.61;;;12.36;50.58
62038;BME280;47991;42.974;12.082;2023-03-29T10:09:34;98760.61;;;12.39;51.36
62038;BME280;47991;42.974;12.082;2023-03-29T10:12:41;98751.98;;;12.45;51.32
62038;BME280;47991;42.974;12.082;2023-03-29T10:15:40;98757.45;;;12.38;51.11
62038;BME280;47991;42.974;12.082;2023-03-29T10:18:30;98767.48;;;12.32;51.57
62038;BME280;47991;42.974;12.082;2023-03-29T10:26:06;98752.40;;;12.42;51.99
62038;BME280;47991;42.974;12.082;2023-03-29T10:30:18;98741.96;;;12.49;51.87
62038;BME280;47991;42.974;12.082;2023-03-29T10:33:14;98739.57;;;12.62;51.41
62038;BME280;47991;42.974;12.082;2023-03-29T10:36:02;98744.67;;;12.46;52.51
62038;BME280;47991;42.974;12.082;2023-03-29T10:38:36;98733.52;;;12.55;52.62
62038;BME280;47991;42.974;12.082;2023-03-29T10:41:33;98736.96;;;12.59;52.21
62038;BME280;47991;42.974;12.082;2023-03-29T10:44:41;98729.09;;;12.79;51.94
62038;BME280;47991;42.974;12.082;2023-03-29T10:47:25;98727.77;;;12.83;51.39
62038;BME280;47991;42.974;12.082;2023-03-29T10:51:27;98720.92;;;12.95;51.26
62038;BME280;47991;42.974;12.082;2023-03-29T10:54:39;98717.04;;;13.02;51.53
62038;BME280;47991;42.974;12.082;2023-03-29T11:01:11;98720.88;;;13.37;49.84
62038;BME280;47991;42.974;12.082;2023-03-29T11:04:58;98711.16;;;13.43;50.21
62038;BME280;47991;42.974;12.082;2023-03-29T11:11:58;98712.77;;;13.42;49.95
62038;BME280;47991;42.974;12.082;2023-03-29T11:14:54;98713.04;;;13.45;50.23
62038;BME280;47991;42.974;12.082;2023-03-29T11:38:39;98701.44;;;13.61;50.56
62038;BME280;47991;42.974;12.082;2023-03-29T11:41:31;98700.50;;;13.49;50.45
62038;BME280;47991;42.974;12.082;2023-03-29T11:52:40;98700.95;;;13.60;51.61
62038;BME280;47991;42.974;12.082;2023-03-29T11:56:09;98698.60;;;13.54;51.45
62038;BME280;47991;42.974;12.082;2023-03-29T12:16:12;98681.41;;;13.99;51.66
62038;BME280;47991;42.974;12.082;2023-03-29T12:19:12;98676.92;;;14.14;51.12
62038;BME280;47991;42.974;12.082;2023-03-29T12:22:18;98677.19;;;14.10;50.83
62038;BME280;47991;42.974;12.082;2023-03-29T12:25:02;98677.70;;;13.99;51.39
62038;BME280;47991;42.974;12.082;2023-03-29T12:34:29;98663.89;;;13.76;52.19
62038;BME280;47991;42.974;12.082;2023-03-29T12:37:49;98670.03;;;13.80;52.71
62038;BME280;47991;42.974;12.082;2023-03-29T12:40:56;98671.53;;;13.90;52.83
62038;BME280;47991;42.974;12.082;2023-03-29T12:43:50;98664.21;;;13.91;53.28
62038;BME280;47991;42.974;12.082;2023-03-29T12:46:38;98646.01;;;14.25;52.53
62038;BME280;47991;42.974;12.082;2023-03-29T12:49:40;98636.27;;;14.54;51.45
62038;BME280;47991;42.974;12.082;2023-03-29T12:52:33;98634.77;;;14.63;50.95
62038;BME280;47991;42.974;12.082;2023-03-29T12:55:20;98634.20;;;14.58;50.89
62038;BME280;47991;42.974;12.082;2023-03-29T12:58:04;98636.15;;;14.65;50.98
62038;BME280;47991;42.974;12.082;2023-03-29T13:00:46;98639.48;;;14.42;51.02
62038;BME280;47991;42.974;12.082;2023-03-29T13:03:55;98629.13;;;14.37;51.57
62038;BME280;47991;42.974;12.082;2023-03-29T13:09:23;98622.26;;;14.40;51.93
62038;BME280;47991;42.974;12.082;2023-03-29T13:12:37;98608.89;;;14.71;49.43
62038;BME280;47991;42.974;12.082;2023-03-29T13:25:45;98601.47;;;15.03;47.43
62038;BME280;47991;42.974;12.082;2023-03-29T13:29:22;98594.55;;;15.02;47.61
62038;BME280;47991;42.974;12.082;2023-03-29T13:32:47;98598.91;;;15.04;47.68
62038;BME280;47991;42.974;12.082;2023-03-29T13:38:19;98599.79;;;15.37;46.43
62038;BME280;47991;42.974;12.082;2023-03-29T13:44:48;98593.43;;;15.14;46.78
62038;BME280;47991;42.974;12.082;2023-03-29T13:47:42;98588.67;;;15.44;46.36
62038;BME280;47991;42.974;12.082;2023-03-29T13:50:38;98603.70;;;15.78;46.65
62038;BME280;47991;42.974;12.082;2023-03-29T13:53:19;98598.55;;;16.02;45.31
62038;BME280;47991;42.974;12.082;2023-03-29T13:55:53;98586.23;;;15.78;45.58
62038;BME280;47991;42.974;12.082;2023-03-29T13:58:42;98591.18;;;15.54;45.70
62038;BME280;47991;42.974;12.082;2023-03-29T14:01:24;98591.04;;;15.68;44.96
62038;BME280;47991;42.974;12.082;2023-03-29T14:04:30;98585.25;;;15.81;45.40
62038;BME280;47991;42.974;12.082;2023-03-29T14:07:13;98580.19;;;15.83;44.83
62038;BME280;47991;42.974;12.082;2023-03-29T14:09:51;98582.77;;;15.81;44.76
62038;BME280;47991;42.974;12.082;2023-03-29T14:12:24;98583.81;;;15.95;43.95
62038;BME280;47991;42.974;12.082;2023-03-29T14:15:00;98574.20;;;15.71;44.66
62038;BME280;47991;42.974;12.082;2023-03-29T14:17:34;98576.09;;;15.77;44.51
62038;BME280;47991;42.974;12.082;2023-03-29T14:20:04;98576.17;;;15.85;44.58
62038;BME280;47991;42.974;12.082;2023-03-29T14:22:43;98571.04;;;15.85;44.15
62038;BME280;47991;42.974;12.082;2023-03-29T14:25:19;98571.44;;;15.98;44.32
62038;BME280;47991;42.974;12.082;2023-03-29T14:28:42;98565.36;;;15.88;44.42
62038;BME280;47991;42.974;12.082;2023-03-29T14:31:33;98554.84;;;16.12;44.80
62038;BME280;47991;42.974;12.082;2023-03-29T14:34:13;98551.25;;;16.18;44.16
62038;BME280;47991;42.974;12.082;2023-03-29T14:36:52;98558.25;;;16.12;44.63
62038;BME280;47991;42.974;12.082;2023-03-29T14:39:31;98553.49;;;16.24;44.03
62038;BME280;47991;42.974;12.082;2023-03-29T14:42:28;98548.76;;;15.99;44.24
62038;BME280;47991;42.974;12.082;2023-03-29T14:45:26;98550.37;;;15.74;44.56
62038;BME280;47991;42.974;12.082;2023-03-29T14:48:03;98549.08;;;15.30;45.66
62038;BME280;47991;42.974;12.082;2023-03-29T14:55:08;98551.41;;;15.14;46.70
62038;BME280;47991;42.974;12.082;2023-03-29T15:02:58;98556.66;;;15.16;47.18
62038;BME280;47991;42.974;12.082;2023-03-29T15:06:25;98557.07;;;15.30;46.77
62038;BME280;47991;42.974;12.082;2023-03-29T15:09:02;98561.00;;;15.04;48.47
62038;BME280;47991;42.974;12.082;2023-03-29T15:11:40;98557.29;;;14.98;47.55
62038;BME280;47991;42.974;12.082;2023-03-29T15:14:17;98559.24;;;14.82;47.42
62038;BME280;47991;42.974;12.082;2023-03-29T15:17:34;98564.29;;;14.57;48.16
62038;BME280;47991;42.974;12.082;2023-03-29T15:20:11;98560.11;;;14.36;47.95
62038;BME280;47991;42.974;12.082;2023-03-29T15:23:22;98558.60;;;14.39;48.08
62038;BME280;47991;42.974;12.082;2023-03-29T15:26:21;98550.64;;;14.49;47.93
62038;BME280;47991;42.974;12.082;2023-03-29T15:29:14;98540.75;;;14.36;47.85
62038;BME280;47991;42.974;12.082;2023-03-29T15:32:07;98546.80;;;14.59;47.47
62038;BME280;47991;42.974;12.082;2023-03-29T15:34:41;98543.16;;;14.67;47.34
62038;BME280;47991;42.974;12.082;2023-03-29T15:37:32;98545.85;;;14.61;46.84
62038;BME280;47991;42.974;12.082;2023-03-29T15:44:11;98541.85;;;14.17;48.07
62038;BME280;47991;42.974;12.082;2023-03-29T15:47:07;98552.38;;;14.04;48.55
62038;BME280;47991;42.974;12.082;2023-03-29T15:49:49;98544.31;;;13.88;48.73
62038;BME280;47991;42.974;12.082;2023-03-29T15:52:20;98546.27;;;13.94;48.22
62038;BME280;47991;42.974;12.082;2023-03-29T15:54:50;98545.59;;;13.81;48.47
62038;BME280;47991;42.974;12.082;2023-03-29T15:57:21;98551.45;;;13.69;48.93
62038;BME280;47991;42.974;12.082;2023-03-29T15:59:52;98545.45;;;13.86;48.36
62038;BME280;47991;42.974;12.082;2023-03-29T16:02:27;98545.25;;;13.99;48.06
62038;BME280;47991;42.974;12.082;2023-03-29T16:05:33;98542.83;;;13.96;48.27
62038;BME280;47991;42.974;12.082;2023-03-29T16:09:00;98541.44;;;13.95;48.11
62038;BME280;47991;42.974;12.082;2023-03-29T16:12:17;98539.98;;;13.91;47.94
62038;BME280;47991;42.974;12.082;2023-03-29T16:15:22;98538.86;;;13.80;48.03
62038;BME280;47991;42.974;12.082;2023-03-29T16:18:03;98546.50;;;13.67;48.18
62038;BME280;47991;42.974;12.082;2023-03-29T16:20:47;98546.16;;;13.61;48.21
62038;BME280;47991;42.974;12.082;2023-03-29T16:23:29;98548.86;;;13.54;48.26
62038;BME280;47991;42.974;12.082;2023-03-29T16:27:36;98551.70;;;13.47;48.71
62038;BME280;47991;42.974;12.082;2023-03-29T16:30:44;98550.44;;;13.48;48.17
62038;BME280;47991;42.974;12.082;2023-03-29T16:33:58;98553.09;;;13.42;48.31
62038;BME280;47991;42.974;12.082;2023-03-29T16:36:54;98543.73;;;13.40;48.44
62038;BME280;47991;42.974;12.082;2023-03-29T16:40:30;98541.90;;;13.35;48.30
62038;BME280;47991;42.974;12.082;2023-03-29T16:43:31;98548.62;;;13.36;48.18
62038;BME280;47991;42.974;12.082;2023-03-29T16:46:44;98554.30;;;13.29;48.45
62038;BME280;47991;42.974;12.082;2023-03-29T16:49:44;98547.52;;;13.31;48.01
62038;BME280;47991;42.974;12.082;2023-03-29T16:53:04;98538.45;;;13.23;47.15
62038;BME280;47991;42.974;12.082;2023-03-29T16:56:28;98545.84;;;13.13;46.89
62038;BME280;47991;42.974;12.082;2023-03-29T16:59:00;98553.63;;;12.99;46.81
62038;BME280;47991;42.974;12.082;2023-03-29T17:01:54;98557.98;;;12.96;46.87
62038;BME280;47991;42.974;12.082;2023-03-29T17:04:48;98559.71;;;12.84;47.11
62038;BME280;47991;42.974;12.082;2023-03-29T17:07:16;98566.09;;;12.76;47.32
62038;BME280;47991;42.974;12.082;2023-03-29T17:09:56;98565.98;;;12.74;47.23
62038;BME280;47991;42.974;12.082;2023-03-29T17:12:29;98564.35;;;12.67;47.53
62038;BME280;47991;42.974;12.082;2023-03-29T17:15:04;98569.27;;;12.62;47.79
62038;BME280;47991;42.974;12.082;2023-03-29T17:17:34;98572.15;;;12.61;47.81
62038;BME280;47991;42.974;12.082;2023-03-29T17:20:07;98579.93;;;12.54;48.18
62038;BME280;47991;42.974;12.082;2023-03-29T17:22:40;98579.29;;;12.50;48.17
62038;BME280;47991;42.974;12.082;2023-03-29T17:25:26;98577.88;;;12.43;48.89
62038;BME280;47991;42.974;12.082;2023-03-29T17:27:57;98597.17;;;12.37;49.10
62038;BME280;47991;42.974;12.082;2023-03-29T17:30:43;98601.19;;;12.31;49.67
62038;BME280;47991;42.974;12.082;2023-03-29T17:33:13;98605.00;;;12.27;49.75
62038;BME280;47991;42.974;12.082;2023-03-29T17:35:44;98600.52;;;12.21;50.32
62038;BME280;47991;42.974;12.082;2023-03-29T17:38:42;98597.65;;;12.15;50.83
62038;BME280;47991;42.974;12.082;2023-03-29T17:41:54;98600.28;;;12.08;50.42
62038;BME280;47991;42.974;12.082;2023-03-29T17:44:46;98601.38;;;11.97;51.37
62038;BME280;47991;42.974;12.082;2023-03-29T17:47:33;98602.39;;;11.90;51.38
62038;BME280;47991;42.974;12.082;2023-03-29T17:50:14;98613.73;;;11.80;52.02
62038;BME280;47991;42.974;12.082;2023-03-29T17:52:42;98608.52;;;11.76;52.41
62038;BME280;47991;42.974;12.082;2023-03-29T17:55:10;98615.41;;;11.66;52.59
62038;BME280;47991;42.974;12.082;2023-03-29T17:57:56;98623.46;;;11.62;52.71
62038;BME280;47991;42.974;12.082;2023-03-29T18:00:33;98623.25;;;11.54;53.66
62038;BME280;47991;42.974;12.082;2023-03-29T18:03:05;98620.41;;;11.45;54.31
62038;BME280;47991;42.974;12.082;2023-03-29T18:06:06;98623.40;;;11.37;54.73
62038;BME280;47991;42.974;12.082;2023-03-29T18:08:44;98625.73;;;11.25;55.17
62038;BME280;47991;42.974;12.082;2023-03-29T18:11:19;98627.84;;;11.15;56.19
62038;BME280;47991;42.974;12.082;2023-03-29T18:13:59;98630.17;;;11.14;55.65
62038;BME280;47991;42.974;12.082;2023-03-29T18:16:55;98638.21;;;11.09;56.32
62038;BME280;47991;42.974;12.082;2023-03-29T18:19:30;98636.66;;;11.07;56.12
62038;BME280;47991;42.974;12.082;2023-03-29T18:22:11;98635.07;;;11.07;56.65
62038;BME280;47991;42.974;12.082;2023-03-29T18:24:43;98643.14;;;11.00;57.17
62038;BME280;47991;42.974;12.082;2023-03-29T18:27:20;98645.02;;;11.03;56.66
62038;BME280;47991;42.974;12.082;2023-03-29T18:30:09;98657.08;;;11.03;57.32
62038;BME280;47991;42.974;12.082;2023-03-29T18:32:40;98655.22;;;10.97;57.33
62038;BME280;47991;42.974;12.082;2023-03-29T18:35:49;98662.89;;;10.93;57.78
62038;BME280;47991;42.974;12.082;2023-03-29T18:39:50;98670.05;;;10.86;57.90
62038;BME280;47991;42.974;12.082;2023-03-29T18:42:18;98671.20;;;10.82;58.51
62038;BME280;47991;42.974;12.082;2023-03-29T18:44:55;98676.15;;;10.81;59.01
62038;BME280;47991;42.974;12.082;2023-03-29T18:47:28;98678.65;;;10.79;59.18
62038;BME280;47991;42.974;12.082;2023-03-29T18:50:00;98685.04;;;10.78;58.78
62038;BME280;47991;42.974;12.082;2023-03-29T18:53:18;98686.02;;;10.73;59.78
62038;BME280;47991;42.974;12.082;2023-03-29T18:56:01;98689.27;;;10.67;60.05
62038;BME280;47991;42.974;12.082;2023-03-29T18:58:53;98688.31;;;10.59;60.23
62038;BME280;47991;42.974;12.082;2023-03-29T19:06:07;98689.55;;;10.46;61.12
62038;BME280;47991;42.974;12.082;2023-03-29T19:12:56;98690.52;;;10.39;61.98
62038;BME280;47991;42.974;12.082;2023-03-29T19:15:24;98690.89;;;10.38;62.90